Time;durP1;ratioP1;P1;durP2;ratioP2;P2;SDS_P1;SDS_P2;PMS_P1;PMS_P2;Temp;Humidity;BMP_temperature;BMP_pressure;BME280_temperature;BME280_humidity;BME280_pressure;Samples;Min_cycle;Max_cycle;Signal;HPM_P1;HPM_P2
2021/07/01 00:00:15;;;;;;;6.60;5.90;;;17.40;99.90;;;;;;4970361;28;20321;-83
2021/07/01 00:02:42;;;;;;;7.70;6.33;;;17.40;99.90;;;;;;4967891;28;20191;-83
2021/07/01 00:07:38;;;;;;;7.00;6.10;;;17.40;99.90;;;;;;4969508;28;20681;-65
2021/07/01 00:10:25;;;;;;;6.97;6.27;;;17.50;99.90;;;;;;4974451;28;20624;-65
2021/07/01 00:12:52;;;;;;;6.77;6.17;;;17.40;99.90;;;;;;4955569;28;20653;-66
2021/07/01 00:15:29;;;;;;;6.90;6.30;;;17.50;99.90;;;;;;4969090;28;20619;-65
2021/07/01 00:17:58;;;;;;;6.63;5.93;;;17.50;99.90;;;;;;4972294;28;20632;-65
2021/07/01 00:20:27;;;;;;;7.10;6.40;;;17.40;99.90;;;;;;4938080;28;20627;-65
2021/07/01 00:22:52;;;;;;;6.03;5.53;;;17.40;99.90;;;;;;4960775;28;20702;-65
2021/07/01 00:25:20;;;;;;;6.90;6.20;;;17.50;99.90;;;;;;4959593;28;20710;-65
2021/07/01 00:27:47;;;;;;;7.03;6.20;;;17.40;99.90;;;;;;4970046;28;20245;-66
2021/07/01 00:30:15;;;;;;;6.90;6.20;;;17.60;99.90;;;;;;4959830;28;20721;-65
2021/07/01 00:32:41;;;;;;;8.10;7.30;;;17.60;99.90;;;;;;4960326;28;20721;-65
2021/07/01 00:35:08;;;;;;;9.30;7.33;;;17.60;99.90;;;;;;4967388;28;20625;-65
2021/07/01 00:37:33;;;;;;;8.40;7.53;;;17.40;99.90;;;;;;4947015;28;20975;-65
2021/07/01 00:40:04;;;;;;;10.30;8.83;;;17.30;99.90;;;;;;4964621;28;20630;-65
2021/07/01 00:42:30;;;;;;;10.13;9.13;;;17.40;99.90;;;;;;4958265;28;20222;-65
2021/07/01 00:44:56;;;;;;;10.90;9.30;;;17.30;99.90;;;;;;4976957;28;20614;-66
2021/07/01 00:47:24;;;;;;;12.47;9.13;;;17.40;99.90;;;;;;4985820;28;20193;-65
2021/07/01 00:49:49;;;;;;;13.57;9.70;;;17.40;99.90;;;;;;4966770;28;20186;-65
2021/07/01 00:52:15;;;;;;;11.50;9.63;;;17.50;99.90;;;;;;4968690;28;21271;-65
2021/07/01 00:54:43;;;;;;;11.43;10.17;;;17.50;99.90;;;;;;4973877;28;20280;-66
2021/07/01 00:57:12;;;;;;;12.73;10.60;;;17.40;99.90;;;;;;4958590;28;20191;-65
2021/07/01 00:59:40;;;;;;;11.90;10.47;;;17.40;99.90;;;;;;4965471;28;20628;-64
2021/07/01 01:02:08;;;;;;;12.47;11.10;;;17.40;99.90;;;;;;4938400;28;20658;-64
2021/07/01 01:04:36;;;;;;;14.00;11.20;;;17.30;99.90;;;;;;4947857;28;20615;-65
2021/07/01 01:07:03;;;;;;;13.70;11.67;;;17.40;99.90;;;;;;4957238;28;20713;-64
2021/07/01 01:09:29;;;;;;;15.73;10.73;;;17.40;99.90;;;;;;4959473;28;20595;-65
2021/07/01 01:11:54;;;;;;;14.63;10.40;;;17.30;99.90;;;;;;4955506;28;20648;-65
2021/07/01 01:14:20;;;;;;;15.57;11.10;;;17.30;99.90;;;;;;4940544;28;20187;-65
2021/07/01 01:16:48;;;;;;;13.20;10.17;;;17.30;99.90;;;;;;4959649;28;21132;-65
2021/07/01 01:19:15;;;;;;;13.20;10.63;;;17.30;99.90;;;;;;4954547;28;20213;-65
2021/07/01 01:21:45;;;;;;;11.63;9.57;;;17.40;99.90;;;;;;4958471;28;20674;-64
2021/07/01 01:24:13;;;;;;;11.60;10.40;;;17.40;99.90;;;;;;4964806;28;20618;-65
2021/07/01 01:26:38;;;;;;;11.47;10.23;;;17.40;99.90;;;;;;4940673;28;20956;-65
2021/07/01 01:29:04;;;;;;;11.70;10.10;;;17.40;99.90;;;;;;4954480;28;20621;-64
2021/07/01 01:31:36;;;;;;;11.70;10.50;;;17.40;99.90;;;;;;4962834;28;20269;-65
2021/07/01 01:34:03;;;;;;;15.00;11.17;;;17.40;99.90;;;;;;4960089;28;20179;-65
2021/07/01 01:36:31;;;;;;;11.47;10.20;;;17.40;99.90;;;;;;4941024;28;20613;-66
2021/07/01 01:38:57;;;;;;;13.30;11.30;;;17.40;99.90;;;;;;4947703;28;20634;-65
2021/07/01 01:41:24;;;;;;;12.10;10.80;;;17.40;99.90;;;;;;4971872;28;20638;-65
2021/07/01 01:43:50;;;;;;;13.87;11.00;;;17.30;99.90;;;;;;4966022;28;20214;-65
2021/07/01 01:46:15;;;;;;;11.40;10.20;;;17.30;99.90;;;;;;4965449;28;20969;-65
2021/07/01 01:48:42;;;;;;;13.20;10.80;;;17.20;99.90;;;;;;4951296;28;20183;-65
2021/07/01 01:51:07;;;;;;;12.97;11.03;;;17.30;99.90;;;;;;4965979;28;20258;-66
2021/07/01 01:53:33;;;;;;;13.20;11.03;;;17.30;99.90;;;;;;4975243;28;20645;-65
2021/07/01 01:55:58;;;;;;;12.50;10.37;;;17.30;99.90;;;;;;4973791;28;20197;-64
2021/07/01 01:58:24;;;;;;;13.67;11.97;;;17.30;99.90;;;;;;4972015;28;20256;-66
2021/07/01 02:00:50;;;;;;;13.87;12.43;;;17.10;99.90;;;;;;4966962;28;20294;-65
2021/07/01 02:03:15;;;;;;;15.00;13.27;;;17.20;99.90;;;;;;4964288;28;21957;-65
2021/07/01 02:05:41;;;;;;;15.07;12.90;;;17.30;99.90;;;;;;4943022;28;21740;-66
2021/07/01 02:08:08;;;;;;;17.43;13.90;;;17.30;99.90;;;;;;4970681;28;20201;-65
2021/07/01 02:10:35;;;;;;;17.97;15.23;;;17.20;99.90;;;;;;4971629;28;20214;-64
2021/07/01 02:13:01;;;;;;;19.23;14.60;;;17.20;99.90;;;;;;4963641;28;20655;-65
2021/07/01 02:15:26;;;;;;;17.63;14.50;;;17.30;99.90;;;;;;4972897;28;21133;-66
2021/07/01 02:17:56;;;;;;;16.87;14.30;;;17.20;99.90;;;;;;4979507;28;20627;-65
2021/07/01 02:20:27;;;;;;;16.67;14.13;;;17.20;99.90;;;;;;4958391;28;20222;-64
2021/07/01 02:22:55;;;;;;;19.90;15.27;;;17.20;99.90;;;;;;4974854;28;20719;-64
2021/07/01 02:25:21;;;;;;;17.13;14.50;;;17.20;99.90;;;;;;4965530;28;20746;-65
2021/07/01 02:27:46;;;;;;;20.27;14.13;;;17.10;99.90;;;;;;4961079;28;20634;-65
2021/07/01 02:30:15;;;;;;;16.20;13.90;;;17.10;99.90;;;;;;4953189;28;20191;-65
2021/07/01 02:32:43;;;;;;;17.20;15.40;;;17.20;99.90;;;;;;4955969;28;20243;-66
2021/07/01 02:35:10;;;;;;;14.53;12.57;;;17.10;99.90;;;;;;4958494;28;20614;-65
2021/07/01 02:37:37;;;;;;;17.27;13.97;;;17.20;99.90;;;;;;4970427;28;20622;-64
2021/07/01 02:40:12;;;;;;;16.43;13.73;;;17.20;99.90;;;;;;4966568;28;20759;-66
2021/07/01 02:42:41;;;;;;;16.20;13.60;;;17.20;99.90;;;;;;4957116;28;20664;-66
2021/07/01 02:45:08;;;;;;;16.90;13.73;;;17.30;99.90;;;;;;4966398;28;20966;-66
2021/07/01 02:47:34;;;;;;;14.23;12.73;;;17.40;99.90;;;;;;4947738;28;20680;-66
2021/07/01 02:49:59;;;;;;;14.20;12.70;;;17.40;99.90;;;;;;4966757;28;20605;-64
2021/07/01 02:52:27;;;;;;;15.17;13.30;;;17.40;99.90;;;;;;4946640;28;20378;-65
2021/07/01 02:54:53;;;;;;;15.37;13.37;;;17.40;99.90;;;;;;4959707;28;20253;-66
2021/07/01 02:57:18;;;;;;;14.90;12.37;;;17.40;99.90;;;;;;4963204;28;20705;-66
2021/07/01 02:59:44;;;;;;;19.60;13.43;;;17.40;99.90;;;;;;4955994;28;20187;-65
2021/07/01 03:02:09;;;;;;;15.17;13.43;;;17.40;99.90;;;;;;4957066;28;20440;-66
2021/07/01 03:04:37;;;;;;;15.80;13.50;;;17.30;99.90;;;;;;4945684;28;20191;-66
2021/07/01 03:07:05;;;;;;;15.00;13.40;;;17.40;99.90;;;;;;4940779;28;20199;-66
2021/07/01 03:09:30;;;;;;;17.70;14.20;;;17.40;99.90;;;;;;4961716;28;20633;-66
2021/07/01 03:11:56;;;;;;;17.70;13.97;;;17.30;99.90;;;;;;4967633;28;21031;-66
2021/07/01 03:14:21;;;;;;;15.03;12.90;;;17.30;99.90;;;;;;4962209;28;20186;-66
2021/07/01 03:16:47;;;;;;;13.90;12.50;;;17.20;99.90;;;;;;4940047;28;20241;-66
2021/07/01 03:19:13;;;;;;;14.77;13.30;;;17.30;99.90;;;;;;4966648;28;20202;-64
2021/07/01 03:21:38;;;;;;;14.57;12.73;;;17.30;99.90;;;;;;4951319;28;20267;-66
2021/07/01 03:24:06;;;;;;;14.57;12.30;;;17.30;99.90;;;;;;4978356;28;20186;-65
2021/07/01 03:26:32;;;;;;;13.73;12.23;;;17.30;99.90;;;;;;4982741;28;20190;-64
2021/07/01 03:28:58;;;;;;;13.53;11.90;;;17.30;99.90;;;;;;4980989;28;20697;-65
2021/07/01 03:31:30;;;;;;;13.27;11.90;;;17.40;99.90;;;;;;4986861;28;20198;-66
2021/07/01 03:33:56;;;;;;;12.80;11.40;;;17.50;99.90;;;;;;4969381;28;20323;-65
2021/07/01 03:36:24;;;;;;;15.00;11.90;;;17.50;99.90;;;;;;4971186;28;20635;-66
2021/07/01 03:38:49;;;;;;;12.17;10.97;;;17.40;99.90;;;;;;4967319;28;20191;-65
2021/07/01 03:41:17;;;;;;;13.03;11.10;;;17.30;99.90;;;;;;4945036;28;20972;-64
2021/07/01 03:43:46;;;;;;;13.00;11.67;;;17.30;99.90;;;;;;4965019;28;20214;-64
2021/07/01 03:46:14;;;;;;;12.33;11.03;;;17.30;99.90;;;;;;4964160;28;20634;-65
2021/07/01 03:48:40;;;;;;;12.33;11.00;;;17.20;99.90;;;;;;4963210;28;20706;-65
2021/07/01 03:51:06;;;;;;;13.40;10.80;;;17.30;99.90;;;;;;4955028;28;20629;-65
2021/07/01 03:53:32;;;;;;;12.47;11.10;;;17.30;99.90;;;;;;4951897;28;20254;-66
2021/07/01 03:56:01;;;;;;;12.80;11.37;;;17.20;99.90;;;;;;4940179;28;20766;-66
2021/07/01 03:58:27;;;;;;;10.13;9.13;;;17.30;99.90;;;;;;4945973;28;20700;-65
2021/07/01 04:00:53;;;;;;;12.07;10.20;;;17.30;99.90;;;;;;4965123;28;21178;-66
2021/07/01 04:03:19;;;;;;;10.40;9.20;;;17.20;99.90;;;;;;4946788;28;20825;-64
2021/07/01 04:05:44;;;;;;;10.50;9.50;;;17.10;99.90;;;;;;4966748;28;21068;-66
2021/07/01 04:08:10;;;;;;;9.73;8.73;;;17.20;99.90;;;;;;4967984;28;24658;-66
2021/07/01 04:10:35;;;;;;;9.27;7.57;;;17.30;99.90;;;;;;4951349;28;20585;-65
2021/07/01 04:13:01;;;;;;;9.43;7.77;;;17.30;99.90;;;;;;4950952;28;20210;-66
2021/07/01 04:15:27;;;;;;;9.67;7.80;;;17.30;99.90;;;;;;4961355;28;20893;-66
2021/07/01 04:17:52;;;;;;;9.00;8.10;;;17.30;99.90;;;;;;4972805;28;20270;-66
2021/07/01 04:20:18;;;;;;;8.90;8.00;;;17.30;99.90;;;;;;4966732;28;20686;-66
2021/07/01 04:22:43;;;;;;;10.40;8.27;;;17.30;99.90;;;;;;4963232;28;20218;-65
2021/07/01 04:25:10;;;;;;;9.80;8.67;;;17.30;99.90;;;;;;4962816;28;20202;-66
2021/07/01 04:27:35;;;;;;;8.80;7.90;;;17.30;99.90;;;;;;4964106;28;20198;-66
2021/07/01 04:30:01;;;;;;;7.90;7.10;;;17.40;99.90;;;;;;4964565;28;20645;-64
2021/07/01 04:32:27;;;;;;;8.43;7.63;;;17.40;99.90;;;;;;4952085;28;20720;-66
2021/07/01 04:34:55;;;;;;;8.33;7.53;;;17.40;99.90;;;;;;4964076;28;20192;-66
2021/07/01 04:37:20;;;;;;;8.40;7.53;;;17.40;99.90;;;;;;4945000;28;20199;-66
2021/07/01 04:39:46;;;;;;;8.47;7.67;;;17.40;99.90;;;;;;4964635;28;20622;-66
2021/07/01 04:42:13;;;;;;;7.13;6.43;;;17.40;99.90;;;;;;4971732;28;20598;-66
2021/07/01 04:44:41;;;;;;;7.43;6.73;;;17.40;99.90;;;;;;4967611;28;20215;-65
2021/07/01 04:47:07;;;;;;;6.30;5.77;;;17.40;99.90;;;;;;4964262;28;20972;-66
2021/07/01 04:49:32;;;;;;;6.40;5.83;;;17.50;99.90;;;;;;4949869;28;20623;-66
2021/07/01 04:51:58;;;;;;;6.93;6.07;;;17.40;99.90;;;;;;4948303;28;20218;-66
2021/07/01 04:54:25;;;;;;;5.60;5.13;;;17.40;99.90;;;;;;4963942;28;20213;-66
2021/07/01 04:56:51;;;;;;;4.87;4.43;;;17.40;99.90;;;;;;4965809;28;20221;-65
2021/07/01 04:59:18;;;;;;;4.93;4.53;;;17.50;99.90;;;;;;4964505;28;21118;-63
2021/07/01 05:01:44;;;;;;;6.97;5.40;;;17.40;99.90;;;;;;4950618;28;20802;-66
2021/07/01 05:04:11;;;;;;;5.27;4.87;;;17.40;99.90;;;;;;4965839;28;20635;-63
2021/07/01 05:06:38;;;;;;;4.50;4.10;;;17.40;99.90;;;;;;4948727;28;20207;-65
2021/07/01 05:09:05;;;;;;;5.67;5.17;;;17.50;99.90;;;;;;4959151;28;21195;-65
2021/07/01 05:11:31;;;;;;;5.27;4.80;;;17.50;99.90;;;;;;4966609;28;20736;-65
2021/07/01 05:13:57;;;;;;;5.33;4.80;;;17.40;99.90;;;;;;4963328;28;21121;-65
2021/07/01 05:16:28;;;;;;;4.70;4.30;;;17.40;99.90;;;;;;4957695;28;20585;-63
2021/07/01 05:18:57;;;;;;;5.80;4.83;;;17.40;99.90;;;;;;4970101;28;20617;-66
2021/07/01 05:21:24;;;;;;;4.93;4.43;;;17.50;99.90;;;;;;4967214;28;20684;-65
2021/07/01 05:23:50;;;;;;;4.67;3.80;;;17.40;99.90;;;;;;4967353;28;20618;-65
2021/07/01 05:26:16;;;;;;;4.90;4.13;;;17.40;99.90;;;;;;4964785;28;20658;-65
2021/07/01 05:28:41;;;;;;;4.50;4.10;;;17.40;99.90;;;;;;4956287;28;20684;-65
2021/07/01 05:31:07;;;;;;;4.57;4.17;;;17.40;99.90;;;;;;4956567;28;20726;-63
2021/07/01 05:33:35;;;;;;;3.90;3.60;;;17.50;99.90;;;;;;4956781;28;20285;-65
2021/07/01 05:36:01;;;;;;;3.77;3.47;;;17.50;99.90;;;;;;4966352;28;20194;-64
2021/07/01 05:38:28;;;;;;;4.13;3.83;;;17.60;99.90;;;;;;4966003;28;20971;-65
2021/07/01 05:40:54;;;;;;;3.67;3.37;;;17.60;99.90;;;;;;4980674;28;20708;-64
2021/07/01 05:43:20;;;;;;;4.13;3.83;;;17.60;99.90;;;;;;4951188;28;20637;-64
2021/07/01 05:45:47;;;;;;;4.93;4.00;;;17.50;99.90;;;;;;4964039;28;20204;-67
2021/07/01 05:48:13;;;;;;;3.87;3.57;;;17.50;99.90;;;;;;4941487;28;20198;-64
2021/07/01 05:50:46;;;;;;;3.77;3.37;;;17.50;99.90;;;;;;4963496;28;20606;-65
2021/07/01 05:53:23;;;;;;;3.90;3.13;;;17.50;99.90;;;;;;4966549;28;25878;-65
2021/07/01 05:55:50;;;;;;;3.70;3.30;;;17.50;99.90;;;;;;4955764;28;20629;-65
2021/07/01 05:58:16;;;;;;;3.30;3.00;;;17.50;99.90;;;;;;4953648;28;20744;-65
2021/07/01 06:00:41;;;;;;;3.20;2.90;;;17.50;99.90;;;;;;4970389;28;20737;-63
2021/07/01 06:03:09;;;;;;;3.53;3.23;;;17.60;99.90;;;;;;4956476;28;20270;-63
2021/07/01 06:05:37;;;;;;;3.23;2.93;;;17.60;99.90;;;;;;4945180;28;20191;-65
2021/07/01 06:08:06;;;;;;;3.53;3.23;;;17.50;99.90;;;;;;4947376;28;20617;-65
2021/07/01 06:10:34;;;;;;;3.50;3.20;;;17.60;99.90;;;;;;4965865;28;20613;-65
2021/07/01 06:13:00;;;;;;;3.87;3.20;;;17.60;99.90;;;;;;4966829;28;20746;-65
2021/07/01 06:15:27;;;;;;;3.37;3.10;;;17.60;99.90;;;;;;4951244;28;21069;-65
2021/07/01 06:17:53;;;;;;;4.00;3.20;;;17.60;99.90;;;;;;4967767;28;20274;-64
2021/07/01 06:20:19;;;;;;;3.23;2.90;;;17.60;99.90;;;;;;4955031;28;20622;-64
2021/07/01 06:22:45;;;;;;;3.93;3.40;;;17.60;99.90;;;;;;4970022;28;20708;-64
2021/07/01 06:25:14;;;;;;;3.70;3.40;;;17.60;99.90;;;;;;4952460;28;20646;-65
2021/07/01 06:27:40;;;;;;;3.50;3.20;;;17.60;99.90;;;;;;4970144;28;20618;-65
2021/07/01 06:30:25;;;;;;;2.90;2.70;;;17.60;99.90;;;;;;4962687;28;20628;-65
2021/07/01 06:32:52;;;;;;;4.00;3.00;;;17.60;99.90;;;;;;4970009;28;20634;-64
2021/07/01 06:35:23;;;;;;;3.50;3.20;;;17.70;99.90;;;;;;4978654;28;20597;-65
2021/07/01 06:37:51;;;;;;;2.90;2.70;;;17.70;99.90;;;;;;4949703;28;20613;-64
2021/07/01 06:40:16;;;;;;;3.30;3.00;;;17.70;99.90;;;;;;4972166;28;20609;-65
2021/07/01 06:43:03;;;;;;;6.23;2.80;;;17.70;99.90;;;;;;4974553;28;20966;-66
2021/07/01 06:45:31;;;;;;;3.50;3.20;;;17.80;99.90;;;;;;4953963;28;20245;-66
2021/07/01 06:48:01;;;;;;;3.13;2.83;;;17.80;99.90;;;;;;4967106;28;20705;-64
2021/07/01 06:50:30;;;;;;;3.40;3.20;;;17.80;99.90;;;;;;4971413;28;20705;-66
2021/07/01 06:52:59;;;;;;;2.93;2.63;;;17.90;99.90;;;;;;4970644;28;20672;-66
2021/07/01 06:55:27;;;;;;;2.60;2.40;;;17.80;99.90;;;;;;4958549;28;20610;-65
2021/07/01 06:57:54;;;;;;;2.93;2.73;;;17.90;99.90;;;;;;4957406;28;20609;-66
2021/07/01 07:00:23;;;;;;;3.10;2.90;;;17.80;99.90;;;;;;4974660;28;20594;-66
2021/07/01 07:02:53;;;;;;;2.80;2.50;;;17.80;99.90;;;;;;4980281;28;20666;-66
2021/07/01 07:05:19;;;;;;;2.50;2.30;;;18.00;99.90;;;;;;4973318;28;20610;-66
2021/07/01 07:07:47;;;;;;;3.10;2.90;;;18.00;99.90;;;;;;4953150;28;20652;-65
2021/07/01 07:10:19;;;;;;;3.60;3.30;;;18.00;99.90;;;;;;4947785;28;20709;-65
2021/07/01 07:12:49;;;;;;;3.17;2.93;;;18.00;99.90;;;;;;4975320;28;20982;-65
2021/07/01 07:15:29;;;;;;;3.40;3.10;;;18.00;99.90;;;;;;4965089;28;20625;-66
2021/07/01 07:18:02;;;;;;;3.20;3.00;;;18.10;99.90;;;;;;4948444;28;21181;-66
2021/07/01 07:20:29;;;;;;;3.10;2.90;;;18.10;99.90;;;;;;4965339;28;20622;-65
2021/07/01 07:22:58;;;;;;;3.53;3.23;;;18.10;99.90;;;;;;4972657;28;20725;-66
2021/07/01 07:25:26;;;;;;;3.80;3.50;;;18.00;99.90;;;;;;4954794;28;20625;-66
2021/07/01 07:28:02;;;;;;;3.13;2.93;;;18.00;99.90;;;;;;4960892;28;20700;-66
2021/07/01 07:30:28;;;;;;;3.67;3.37;;;18.10;99.90;;;;;;4983526;28;20613;-66
2021/07/01 07:32:55;;;;;;;3.90;3.60;;;18.10;99.90;;;;;;4969838;28;20637;-64
2021/07/01 07:35:24;;;;;;;3.80;3.50;;;18.10;99.90;;;;;;4961672;28;20183;-66
2021/07/01 07:37:49;;;;;;;5.17;4.13;;;18.10;99.90;;;;;;4976283;28;20759;-66
2021/07/01 07:40:17;;;;;;;4.20;3.80;;;18.10;99.90;;;;;;4973764;28;20693;-66
2021/07/01 07:42:44;;;;;;;4.10;3.70;;;18.20;99.90;;;;;;4968432;28;20330;-66
2021/07/01 07:45:10;;;;;;;3.43;3.13;;;18.20;99.90;;;;;;4960115;28;21192;-66
2021/07/01 07:47:36;;;;;;;4.03;3.73;;;18.30;99.90;;;;;;4943177;28;20649;-64
2021/07/01 07:50:02;;;;;;;3.63;3.33;;;18.30;99.90;;;;;;4969604;28;21122;-66
2021/07/01 07:52:33;;;;;;;4.70;3.67;;;18.30;99.90;;;;;;4952957;28;20572;-66
2021/07/01 07:55:04;;;;;;;3.80;3.50;;;18.40;99.90;;;;;;4970433;28;20982;-65
2021/07/01 07:57:32;;;;;;;3.90;3.60;;;18.40;99.90;;;;;;4967725;28;20606;-65
2021/07/01 08:00:04;;;;;;;4.23;3.93;;;18.40;99.90;;;;;;4970238;28;20598;-66
2021/07/01 08:02:47;;;;;;;4.13;3.73;;;18.50;99.90;;;;;;4953189;28;20725;-66
2021/07/01 08:05:20;;;;;;;4.33;3.87;;;18.50;99.90;;;;;;4965231;28;21173;-66
2021/07/01 08:07:46;;;;;;;4.53;4.23;;;18.60;99.90;;;;;;4952555;28;20649;-67
2021/07/01 08:10:16;;;;;;;4.70;4.30;;;18.60;99.90;;;;;;4974507;28;21207;-66
2021/07/01 08:12:48;;;;;;;5.10;4.70;;;18.60;99.90;;;;;;4963657;28;21300;-66
2021/07/01 08:15:19;;;;;;;6.17;4.90;;;18.70;99.90;;;;;;4969040;28;20606;-66
2021/07/01 08:17:46;;;;;;;4.70;4.30;;;18.70;99.90;;;;;;4971424;28;20610;-66
2021/07/01 08:20:14;;;;;;;4.87;4.47;;;18.80;99.90;;;;;;4955402;28;20622;-66
2021/07/01 08:22:43;;;;;;;5.40;5.00;;;18.80;99.90;;;;;;4938892;28;20684;-66
2021/07/01 08:25:09;;;;;;;5.57;5.17;;;18.90;99.90;;;;;;4976162;28;20716;-66
2021/07/01 08:27:37;;;;;;;5.57;5.17;;;18.90;99.90;;;;;;4972605;28;20625;-66
2021/07/01 08:30:06;;;;;;;5.93;5.40;;;18.90;99.90;;;;;;4978264;28;20645;-66
2021/07/01 08:32:32;;;;;;;6.03;5.43;;;19.00;99.90;;;;;;4980891;28;20716;-66
2021/07/01 08:35:01;;;;;;;6.80;6.10;;;19.00;99.90;;;;;;4976694;28;20639;-65
2021/07/01 08:37:29;;;;;;;5.70;5.20;;;19.00;99.90;;;;;;4974488;28;20637;-67
2021/07/01 08:40:00;;;;;;;5.50;5.10;;;19.00;99.90;;;;;;4957885;28;20652;-66
2021/07/01 08:42:34;;;;;;;6.33;5.83;;;19.10;99.90;;;;;;4970773;28;20668;-67
2021/07/01 08:45:15;;;;;;;6.20;5.70;;;19.10;99.90;;;;;;4957539;28;20652;-64
2021/07/01 08:47:43;;;;;;;6.47;5.87;;;19.10;99.90;;;;;;4955306;28;20614;-66
2021/07/01 08:50:14;;;;;;;6.83;6.30;;;19.20;99.90;;;;;;4954313;28;20618;-64
2021/07/01 08:52:49;;;;;;;6.83;6.27;;;19.20;99.90;;;;;;4973030;28;20649;-66
2021/07/01 08:55:18;;;;;;;6.37;5.87;;;19.20;99.90;;;;;;4986611;28;20625;-66
2021/07/01 08:57:47;;;;;;;6.27;5.77;;;19.20;99.90;;;;;;4980468;28;20617;-64
2021/07/01 09:00:15;;;;;;;7.60;7.00;;;19.20;99.90;;;;;;4952029;28;20629;-65
2021/07/01 09:03:02;;;;;;;7.47;6.83;;;19.30;99.90;;;;;;4962322;28;20674;-65
2021/07/01 09:05:35;;;;;;;8.17;7.47;;;19.30;99.90;;;;;;4968927;28;20605;-64
2021/07/01 09:08:11;;;;;;;8.70;7.90;;;19.30;99.90;;;;;;4975634;28;20613;-66
2021/07/01 09:10:37;;;;;;;8.07;7.40;;;19.30;99.90;;;;;;4955836;28;20732;-66
2021/07/01 09:13:09;;;;;;;8.07;7.27;;;19.30;99.90;;;;;;4972813;28;20614;-66
2021/07/01 09:15:37;;;;;;;7.83;7.23;;;19.40;99.90;;;;;;4949785;28;20615;-66
2021/07/01 09:18:10;;;;;;;9.00;8.30;;;19.40;99.90;;;;;;4964160;28;20653;-66
2021/07/01 09:20:38;;;;;;;8.70;8.00;;;19.40;99.90;;;;;;4954239;28;20984;-66
2021/07/01 09:23:07;;;;;;;7.43;6.83;;;19.50;99.90;;;;;;4962069;28;20658;-66
2021/07/01 09:25:34;;;;;;;7.40;6.80;;;19.50;99.90;;;;;;4972842;28;21185;-66
2021/07/01 09:28:02;;;;;;;6.90;6.40;;;19.50;99.90;;;;;;4971882;28;21204;-66
2021/07/01 09:30:29;;;;;;;7.80;7.20;;;19.50;99.90;;;;;;4939437;28;20630;-65
2021/07/01 09:33:00;;;;;;;7.87;7.27;;;19.50;99.90;;;;;;4963982;28;20653;-67
2021/07/01 09:35:28;;;;;;;7.40;6.80;;;19.60;99.90;;;;;;4952260;28;20610;-65
2021/07/01 09:37:59;;;;;;;7.83;7.23;;;19.60;99.90;;;;;;4944450;28;20622;-66
2021/07/01 09:40:25;;;;;;;7.70;7.10;;;19.70;99.90;;;;;;4972290;28;20675;-64
2021/07/01 09:42:56;;;;;;;7.80;7.20;;;19.60;99.90;;;;;;4966920;28;20700;-66
2021/07/01 09:45:26;;;;;;;8.10;7.30;;;19.70;99.90;;;;;;4989218;28;20598;-67
2021/07/01 09:48:00;;;;;;;7.40;6.80;;;19.70;99.90;;;;;;4972510;28;21138;-67
2021/07/01 09:50:27;;;;;;;8.20;7.50;;;19.80;99.90;;;;;;4971560;28;20615;-65
2021/07/01 09:52:58;;;;;;;8.47;7.77;;;19.80;99.90;;;;;;4977833;28;20661;-64
2021/07/01 09:55:29;;;;;;;8.60;7.80;;;19.80;99.90;;;;;;4959175;28;20618;-66
2021/07/01 09:57:58;;;;;;;8.90;8.20;;;19.80;99.90;;;;;;4964362;28;20606;-66
2021/07/01 10:00:28;;;;;;;8.13;7.47;;;19.90;99.90;;;;;;4971458;28;20615;-65
2021/07/01 10:03:08;;;;;;;7.97;7.37;;;19.90;99.90;;;;;;4963802;28;20662;-68
2021/07/01 10:05:35;;;;;;;9.40;8.60;;;20.00;99.90;;;;;;4951092;28;21258;-67
2021/07/01 10:08:01;;;;;;;8.93;8.00;;;20.10;99.90;;;;;;4978226;28;20605;-66
2021/07/01 10:10:29;;;;;;;8.17;7.57;;;20.10;99.90;;;;;;4977592;28;21200;-64
2021/07/01 10:12:59;;;;;;;8.43;7.67;;;20.20;99.90;;;;;;4968960;28;20866;-66
2021/07/01 10:15:31;;;;;;;8.67;7.80;;;20.20;99.90;;;;;;4969293;28;20657;-67
2021/07/01 10:18:08;;;;;;;8.20;7.50;;;20.20;99.90;;;;;;4972909;28;20655;-66
2021/07/01 10:20:39;;;;;;;9.10;8.40;;;20.30;99.90;;;;;;4966240;28;20610;-66
2021/07/01 10:23:25;;;;;;;9.97;8.50;;;20.30;99.90;;;;;;4949745;28;20701;-67
2021/07/01 10:25:56;;;;;;;8.10;7.40;;;20.30;99.90;;;;;;4968360;28;20983;-66
2021/07/01 10:28:25;;;;;;;8.73;8.07;;;20.30;99.90;;;;;;4972681;28;20597;-67
2021/07/01 10:31:08;;;;;;;11.00;9.87;;;20.30;99.90;;;;;;4973509;28;20676;-67
2021/07/01 10:33:36;;;;;;;11.60;9.80;;;20.40;99.90;;;;;;4975008;28;20728;-68
2021/07/01 10:36:04;;;;;;;9.40;8.57;;;20.50;99.90;;;;;;4977337;28;20597;-68
2021/07/01 10:38:44;;;;;;;8.77;7.60;;;20.60;99.90;;;;;;4961061;28;22498;-68
2021/07/01 10:41:10;;;;;;;8.67;7.87;;;20.60;99.90;;;;;;4957362;28;21014;-69
2021/07/01 10:43:45;;;;;;;7.90;7.20;;;20.70;99.90;;;;;;4957735;28;20674;-69
2021/07/01 10:46:11;;;;;;;7.03;6.37;;;20.80;99.90;;;;;;4976914;28;21156;-68
2021/07/01 10:48:38;;;;;;;9.17;7.33;;;20.80;99.90;;;;;;4976828;28;20616;-68
2021/07/01 10:51:15;;;;;;;8.07;7.40;;;20.80;99.90;;;;;;4974717;28;20681;-69
2021/07/01 10:53:44;;;;;;;7.47;6.87;;;20.90;99.90;;;;;;4955665;28;20606;-68
2021/07/01 10:56:16;;;;;;;8.20;7.50;;;20.90;99.90;;;;;;4971540;28;20632;-68
2021/07/01 10:58:43;;;;;;;7.90;7.30;;;21.00;99.90;;;;;;4985850;28;20656;-68
2021/07/01 11:01:08;;;;;;;7.97;7.30;;;21.00;99.90;;;;;;4963584;28;21031;-68
2021/07/01 11:03:35;;;;;;;7.30;6.70;;;21.10;99.90;;;;;;4971834;28;20645;-68
2021/07/01 11:06:13;;;;;;;7.87;7.27;;;21.10;99.90;;;;;;4987552;28;20352;-69
2021/07/01 11:08:44;;;;;;;6.53;6.03;;;21.10;99.90;;;;;;4982860;28;20605;-69
2021/07/01 11:11:21;;;;;;;7.63;7.03;;;21.20;99.90;;;;;;4962869;28;20668;-68
2021/07/01 11:13:55;;;;;;;7.90;7.30;;;21.20;99.90;;;;;;4990781;28;20683;-69
2021/07/01 11:16:32;;;;;;;7.40;6.70;;;21.30;99.90;;;;;;4956461;28;20985;-69
2021/07/01 11:18:58;;;;;;;7.10;6.40;;;21.30;99.90;;;;;;4969533;28;21252;-68
2021/07/01 11:21:26;;;;;;;7.17;6.57;;;21.40;99.90;;;;;;4973629;28;20757;-68
2021/07/01 11:24:09;;;;;;;6.50;6.00;;;21.40;99.90;;;;;;4968262;28;20998;-70
2021/07/01 11:26:34;;;;;;;7.23;6.67;;;21.50;99.90;;;;;;4975402;28;20652;-69
2021/07/01 11:29:06;;;;;;;7.50;6.90;;;21.60;99.90;;;;;;4972734;28;21260;-68
2021/07/01 11:31:40;;;;;;;7.23;6.60;;;21.60;99.90;;;;;;4984730;28;20273;-68
2021/07/01 11:34:07;;;;;;;6.37;5.87;;;21.80;99.90;;;;;;4955930;28;20651;-69
2021/07/01 11:36:34;;;;;;;6.57;6.07;;;21.90;99.90;;;;;;4963825;28;20593;-69
2021/07/01 11:39:10;;;;;;;7.67;6.43;;;22.00;99.90;;;;;;4960362;28;20725;-68
2021/07/01 11:41:36;;;;;;;7.33;6.73;;;22.10;99.90;;;;;;4976312;28;20640;-68
2021/07/01 11:44:02;;;;;;;6.33;5.83;;;22.10;99.90;;;;;;4974758;28;20683;-68
2021/07/01 11:46:28;;;;;;;6.10;5.70;;;22.20;99.90;;;;;;4990982;28;20599;-68
2021/07/01 11:48:57;;;;;;;6.10;5.70;;;22.20;99.90;;;;;;4990185;28;20598;-68
2021/07/01 11:51:26;;;;;;;6.23;5.73;;;22.30;99.90;;;;;;4976998;28;20617;-68
2021/07/01 11:53:52;;;;;;;6.20;5.70;;;22.30;99.90;;;;;;4979842;28;21169;-68
2021/07/01 11:56:24;;;;;;;5.73;5.20;;;22.40;99.90;;;;;;4974094;28;20593;-68
2021/07/01 11:58:50;;;;;;;5.73;5.33;;;22.50;99.90;;;;;;4955454;28;21225;-70
2021/07/01 12:01:16;;;;;;;6.03;5.50;;;22.60;99.90;;;;;;4950340;29;20642;-69
2021/07/01 12:03:45;;;;;;;5.73;5.20;;;22.70;99.90;;;;;;4970929;28;20206;-69
2021/07/01 12:06:27;;;;;;;5.73;5.23;;;22.80;99.90;;;;;;5000814;23;20781;-82
2021/07/01 12:08:53;;;;;;;5.97;5.50;;;22.90;99.90;;;;;;4958751;28;20664;-82
2021/07/01 12:11:19;;;;;;;5.40;5.00;;;22.90;99.90;;;;;;4957196;28;20647;-82
2021/07/01 12:13:45;;;;;;;5.77;5.37;;;23.00;99.90;;;;;;4958490;28;20194;-82
2021/07/01 12:16:12;;;;;;;5.70;5.20;;;23.00;99.90;;;;;;4962098;28;20213;-82
2021/07/01 12:18:52;;;;;;;6.33;5.90;;;22.90;99.90;;;;;;4980229;28;20644;-82
2021/07/01 12:21:29;;;;;;;6.03;5.60;;;22.80;99.90;;;;;;4980638;28;20715;-84
2021/07/01 12:23:58;;;;;;;8.17;6.00;;;22.80;99.90;;;;;;4980341;28;20601;-82
2021/07/01 12:26:43;;;;;;;6.30;5.80;;;22.70;99.90;;;;;;4978211;28;20661;-82
2021/07/01 12:29:27;;;;;;;6.30;5.80;;;22.70;99.90;;;;;;4974401;28;20672;-83
2021/07/01 12:31:54;;;;;;;6.30;5.80;;;22.60;99.90;;;;;;4956406;28;20627;-84
2021/07/01 12:34:21;;;;;;;6.80;6.20;;;22.50;99.90;;;;;;4995348;28;20617;-84
2021/07/01 12:37:07;;;;;;;6.63;6.00;;;22.50;99.90;;;;;;4989508;28;20653;-82
2021/07/01 12:39:39;;;;;;;6.73;6.23;;;22.40;99.90;;;;;;4990154;28;20644;-83
2021/07/01 12:42:05;;;;;;;6.77;6.17;;;22.30;99.90;;;;;;4988168;28;20704;-83
2021/07/01 12:44:36;;;;;;;7.47;6.77;;;22.40;99.90;;;;;;4989772;28;20645;-82
2021/07/01 12:47:08;;;;;;;7.20;6.30;;;22.20;99.90;;;;;;5007513;28;20212;-82
2021/07/01 12:49:35;;;;;;;6.97;6.27;;;22.20;99.90;;;;;;4986659;28;20598;-83